• Join FlightAware (Why Join?)
  • Login
  • US Flag 
08:13PM EST


 

Airport Tracker/Info


-or-


 

Live Flight TrackerFlight Track Log ✈ UAL33 ✈ 17-07-2013 ✈ KIAH - KORD

Flight Track Log - Related Links

Times and Time Zones

All times are in EDT time to prevent confusion due to time zone crossing. See the UAL33 flight status page for this flight to view local times or setup timezone preferences in your user account.

Time Position Orientation Groundspeed Altitude Reporting Facility
EDT Latitude Longitude Course Direction KTS MPH feet Rate Location/Type
05:20PM 29.9776 -95.3042 90° East 161 185 300  Level FlightAware ADS-B
05:20PM 29.9778 -95.2999 87° East 163 188 500 2,700 Climbing FlightAware ADS-B
05:20PM 29.9789 -95.2950 75° East 163 188 800 2,100 Climbing FlightAware ADS-B
05:20PM 29.9819 -95.2891 60° Northeast 166 191 1,000 1,980 Climbing FlightAware ADS-B
05:20PM 29.9841 -95.2867 43° Northeast 170 196 1,200 2,520 Climbing FlightAware ADS-B
05:20PM 29.9865 -95.2849 33° Northeast 174 200 1,300 1,680 Climbing FlightAware ADS-B
05:21PM 29.9896 -95.2834 23° Northeast 180 207 1,400 1,500 Climbing FlightAware ADS-B
05:21PM 29.9924 -95.2825 16° North 188 216 1,500 840 Climbing FlightAware ADS-B
05:21PM 29.9953 -95.2821 North 194 223 1,500 960 Level FlightAware ADS-B
05:21PM 29.9981 -95.2818 North 199 229 1,600 1,680 Climbing FlightAware ADS-B
05:21PM 30.0015 -95.2817 North 202 232 1,700 1,560 Climbing FlightAware ADS-B
05:21PM 30.0130 -95.2817 360° North 222 255 2,000 1,980 Climbing FlightAware ADS-B
05:21PM 30.0204 -95.2817 360° North 230 265 2,300 2,100 Climbing FlightAware ADS-B
05:21PM 30.0352 -95.2818 360° North 250 288 2,700 2,040 Climbing FlightAware ADS-B
05:22PM 30.0537 -95.2821 359° North 268 308 3,300 1,740 Climbing FlightAware ADS-B
05:22PM 30.0731 -95.2824 359° North 270 311 3,600 360 Climbing FlightAware ADS-B
05:23PM 30.1502 -95.2858 349° North 273 314 3,800 300 Climbing FlightAware ADS-B
05:23PM 30.1950 -95.3012 343° North 275 316 4,100 1,500 Climbing FlightAware ADS-B
05:24PM 30.2244 -95.3114 343° North 281 323 5,300 3,120 Climbing FlightAware ADS-B
05:24PM 30.2525 -95.3196 347° North 286 329 6,500 3,180 Climbing FlightAware ADS-B
05:24PM 30.2659 -95.3222 350° North 289 333 7,000 3,120 Climbing FlightAware ADS-B
05:25PM 30.2782 -95.3232 358° North 290 334 7,500 3,120 Climbing FlightAware ADS-B
05:25PM 30.3170 -95.3173 North 294 338 9,000 2,400 Climbing FlightAware ADS-B
05:26PM 30.3834 -95.3039 10° North 335 386 10,600 2,220 Climbing FlightAware ADS-B
05:26PM 30.4311 -95.2941 10° North 352 405 11,900 2,700 Climbing FlightAware ADS-B
05:27PM 30.4822 -95.2839 10° North 368 423 13,400 2,160 Climbing FlightAware ADS-B
05:27PM 30.5376 -95.2732 North 404 465 14,200 1,440 Climbing FlightAware ADS-B
05:28PM 30.5889 -95.2666 North 435 501 14,800 1,380 Climbing FlightAware ADS-B
05:28PM 30.6121 -95.2688 353° North 446 513 15,100 2,220 Climbing FlightAware ADS-B
05:28PM 30.6386 -95.2755 348° North 452 520 15,700 1,980 Climbing FlightAware ADS-B
05:29PM 30.7632 -95.3156 345° North 459 528 17,600 2,160 Climbing FlightAware ADS-B
05:30PM 30.8942 -95.3578 344° North 470 541 20,200 2,160 Climbing FlightAware ADS-B
05:32PM 31.1686 -95.4394 349° North 489 563 24,500 1,860 Climbing FlightAware ADS-B
05:37PM 31.8460 -95.5010 356° North 498 573 33,300 1,740 Climbing FlightAware
05:38PM 31.9450 -95.5100 356° North 495 570 34,600 1,620 Climbing FlightAware
05:39PM 32.1290 -95.5270 356° North 491 565 36,700 1,500 Climbing FlightAware
05:40PM 32.2270 -95.5360 356° North 487 560 37,700 1,260 Climbing FlightAware
05:41PM 32.3260 -95.5450 356° North 485 558 38,600 1,200 Climbing FlightAware
05:41PM 32.4050 -95.5520 356° North 480 552 39,300 960 Climbing FlightAware
05:42PM 32.5420 -95.5650 355° North 480 552 40,200 780 Climbing FlightAware
05:43PM 32.6120 -95.5710 356° North 479 551 40,600 600 Climbing FlightAware
05:44PM 32.7060 -95.5800 355° North 478 550 41,000 240 Climbing FlightAware
05:44PM 32.7980 -95.5880 356° North 476 548 41,000  Level FlightAware
05:45PM 32.8940 -95.5970 355° North 474 545 41,000  Level FlightAware
05:46PM 32.9760 -95.6050 355° North 478 550 41,000  Level FlightAware
05:46PM 33.0800 -95.6140 356° North 478 550 41,000  Level FlightAware
05:47PM 33.1650 -95.6220 355° North 477 549 41,000  Level FlightAware
05:48PM 33.2660 -95.6320 355° North 476 548 41,000  Level FlightAware
05:49PM 33.3490 -95.6400 355° North 476 548 41,000  Level FlightAware
05:49PM 33.4460 -95.6490 356° North 476 548 41,000  Level FlightAware
05:50PM 33.5350 -95.6570 356° North 476 548 41,000  Level FlightAware
05:51PM 33.6360 -95.6660 356° North 476 548 41,000  Level FlightAware
05:51PM 33.7200 -95.6740 355° North 478 550 41,000  Level FlightAware
05:52PM 33.7990 -95.6820 355° North 478 550 41,000  Level FlightAware
05:53PM 33.8910 -95.6910 355° North 475 547 41,000  Level FlightAware
05:53PM 33.9880 -95.7000 356° North 475 547 41,000  Level FlightAware
05:54PM 34.1050 -95.7110 356° North 474 545 41,000  Level FlightAware
05:55PM 34.1940 -95.7190 356° North 473 544 41,000  Level FlightAware
05:56PM 34.2910 -95.7290 355° North 471 542 41,000  Level FlightAware
05:56PM 34.3790 -95.7370 356° North 473 544 41,000  Level FlightAware
05:57PM 34.4580 -95.7450 355° North 473 544 41,000  Level FlightAware
05:58PM 34.5490 -95.7530 356° North 474 545 41,000  Level FlightAware
05:58PM 34.6410 -95.7620 355° North 475 547 41,000  Level FlightAware
05:59PM 34.7350 -95.7710 356° North 472 543 41,000  Level FlightAware
06:00PM 34.8450 -95.7680 North 479 551 41,000  Level FlightAware
06:00PM 34.8780 -95.7470 28° Northeast 483 556 41,000  Level FlightAware
06:01PM 34.9510 -95.6650 43° Northeast 488 562 41,000  Level FlightAware
06:02PM 35.0370 -95.5640 44° Northeast 487 560 41,000  Level FlightAware
06:02PM 35.0880 -95.5040 44° Northeast 487 560 41,000  Level FlightAware
06:03PM 35.1670 -95.4120 44° Northeast 488 562 41,000  Level FlightAware
06:04PM 35.2500 -95.3150 44° Northeast 490 564 41,000  Level FlightAware
06:05PM 35.3220 -95.2300 44° Northeast 489 563 41,000  Level FlightAware
06:06PM 35.4080 -95.1290 44° Northeast 487 560 41,000  Level FlightAware
06:06PM 35.4600 -95.0670 44° Northeast 486 559 41,000  Level FlightAware
06:07PM 35.5320 -94.9810 44° Northeast 484 557 41,000  Level FlightAware
06:08PM 35.5940 -94.9080 44° Northeast 483 556 41,000  Level FlightAware
06:08PM 35.6530 -94.8370 44° Northeast 478 550 41,000  Level FlightAware
06:09PM 35.7190 -94.7590 44° Northeast 478 550 41,000  Level FlightAware
06:09PM 35.7850 -94.6800 44° Northeast 479 551 41,000  Level FlightAware
06:10PM 35.8540 -94.5970 44° Northeast 479 551 41,000  Level FlightAware
06:11PM 35.9460 -94.4850 45° Northeast 475 547 41,000  Level FlightAware
06:12PM 36.0180 -94.3980 44° Northeast 473 544 41,000  Level FlightAware
06:13PM 36.0800 -94.3240 44° Northeast 473 544 41,000  Level FlightAware
06:13PM 36.1450 -94.2450 44° Northeast 472 543 41,000  Level FlightAware
06:14PM 36.2110 -94.1650 44° Northeast 472 543 41,000  Level FlightAware
06:15PM 36.2840 -94.0950 38° Northeast 475 547 41,000  Level FlightAware
06:15PM 36.3680 -94.0370 29° Northeast 476 548 41,000  Level FlightAware
06:16PM 36.4460 -93.9820 30° Northeast 477 549 41,000  Level FlightAware
06:17PM 36.5130 -93.9350 29° Northeast 478 550 41,000  Level FlightAware
06:17PM 36.5920 -93.8790 30° Northeast 481 554 41,000  Level FlightAware
06:18PM 36.6750 -93.8210 29° Northeast 484 557 41,000  Level FlightAware
06:19PM 36.7480 -93.7690 30° Northeast 485 558 41,000  Level FlightAware
06:19PM 36.8250 -93.7140 30° Northeast 486 559 41,000  Level FlightAware
06:22PM 37.1340 -93.4940 30° Northeast 489 563 41,000  Level FlightAware
06:24PM 37.2960 -93.3770 30° Northeast 490 564 41,000  Level FlightAware
06:24PM 37.4080 -93.2860 33° Northeast 487 560 41,000  Level FlightAware
06:25PM 37.4910 -93.2100 36° Northeast 490 564 41,000  Level FlightAware
06:26PM 37.5550 -93.1500 37° Northeast 490 564 41,000  Level FlightAware
06:26PM 37.6350 -93.0760 36° Northeast 490 564 41,000  Level FlightAware
06:27PM 37.7080 -93.0090 36° Northeast 491 565 41,000  Level FlightAware
06:28PM 37.7890 -92.9330 37° Northeast 490 564 41,000  Level FlightAware
06:29PM 37.8690 -92.8580 36° Northeast 489 563 41,000  Level FlightAware
06:29PM 37.9360 -92.7960 36° Northeast 490 564 41,000  Level FlightAware
06:30PM 38.0090 -92.7270 37° Northeast 491 565 41,000  Level FlightAware
06:31PM 38.0810 -92.6590 37° Northeast 491 565 41,000  Level FlightAware
06:31PM 38.1460 -92.5980 36° Northeast 493 567 41,000  Level FlightAware
06:32PM 38.2230 -92.5250 37° Northeast 493 567 41,000  Level FlightAware
06:32PM 38.2950 -92.4570 37° Northeast 491 565 41,000  Level FlightAware
06:33PM 38.3990 -92.3590 36° Northeast 492 566 41,000  Level FlightAware
06:34PM 38.4570 -92.3050 36° Northeast 492 566 41,000  Level FlightAware
06:35PM 38.5320 -92.2350 36° Northeast 492 566 41,000  Level FlightAware
06:36PM 38.6360 -92.1310 38° Northeast 491 565 41,000  Level FlightAware
06:36PM 38.6870 -92.0820 37° Northeast 492 566 41,000  Level FlightAware
06:37PM 38.7650 -92.0070 37° Northeast 492 566 41,000  Level FlightAware
06:37PM 38.8170 -91.9560 37° Northeast 492 566 41,000  Level FlightAware
06:38PM 38.8730 -91.9020 37° Northeast 492 566 41,000  Level FlightAware
06:39PM 38.9900 -91.7880 37° Northeast 491 565 41,000  Level FlightAware
06:40PM 39.0600 -91.7200 37° Northeast 490 564 41,000  Level FlightAware
06:40PM 39.1410 -91.6410 37° Northeast 491 565 41,000  Level FlightAware
06:41PM 39.2040 -91.5800 37° Northeast 491 565 41,000  Level FlightAware
06:42PM 39.2940 -91.4910 37° Northeast 487 560 41,000 -480 Level FlightAware
06:42PM 39.3640 -91.4230 37° Northeast 488 562 40,400 -1,380 Descending FlightAware
06:43PM 39.4450 -91.3430 37° Northeast 494 568 39,100 -840 Descending FlightAware
06:44PM 39.5450 -91.2420 38° Northeast 494 568 39,000 -120 Descending FlightAware
06:45PM 39.6200 -91.1690 37° Northeast 496 571 39,000  Level FlightAware
06:46PM 39.7200 -91.0680 38° Northeast 496 571 39,000  Level FlightAware
06:46PM 39.7990 -90.9900 37° Northeast 497 572 39,000  Level FlightAware
06:47PM 39.8630 -90.9260 38° Northeast 497 572 39,000  Level FlightAware
06:48PM 39.9510 -90.8360 38° Northeast 497 572 39,000 -660 Level FlightAware
06:48PM 40.0260 -90.7610 37° Northeast 495 570 38,100 -1,800 Descending FlightAware
06:49PM 40.1040 -90.6820 38° Northeast 495 570 36,500 -2,400 Descending FlightAware
06:50PM 40.1710 -90.6140 38° Northeast 497 572 34,900 -2,520 Descending FlightAware
06:50PM 40.2450 -90.5380 38° Northeast 505 581 33,300 -1,440 Descending FlightAware
06:51PM 40.3190 -90.4630 38° Northeast 511 588 33,000 -240 Descending FlightAware
06:52PM 40.3950 -90.3850 38° Northeast 509 586 33,000  Level FlightAware
06:52PM 40.4690 -90.3080 38° Northeast 509 586 33,000 -240 Level FlightAware
06:53PM 40.5430 -90.2320 38° Northeast 510 587 32,700 -1,020 Descending FlightAware
06:54PM 40.6120 -90.1610 38° Northeast 516 594 31,700 -1,320 Descending FlightAware
06:54PM 40.6990 -90.0700 38° Northeast 519 597 30,900 -1,140 Descending FlightAware
06:55PM 40.7750 -89.9920 38° Northeast 520 598 30,100 -1,200 Descending FlightAware
06:56PM 40.8570 -89.9060 38° Northeast 521 600 29,300 -1,260 Descending FlightAware
06:57PM 40.9330 -89.8260 38° Northeast 528 608 28,400 -1,500 Descending FlightAware
06:57PM 41.0120 -89.7440 38° Northeast 518 596 27,300 -2,100 Descending FlightAware
06:58PM 41.0980 -89.6530 39° Northeast 504 580 25,400 -2,580 Descending FlightAware
06:59PM 41.1630 -89.5690 44° Northeast 491 565 23,800 -2,400 Descending FlightAware
06:59PM 41.2090 -89.4670 59° Northeast 477 549 22,200 -2,280 Descending FlightAware
07:00PM 41.2560 -89.3510 62° Northeast 469 540 20,500 -2,280 Descending FlightAware
07:01PM 41.2910 -89.2630 62° Northeast 457 526 19,200 -2,220 Descending FlightAware
07:01PM 41.3300 -89.1670 62° Northeast 443 510 17,800 -2,400 Descending FlightAware
07:02PM 41.3700 -89.0670 62° Northeast 436 502 16,000 -2,340 Descending FlightAware
07:03PM 41.4080 -88.9710 62° Northeast 422 486 14,600 -2,040 Descending FlightAware
07:03PM 41.4460 -88.8750 62° Northeast 407 468 13,200 -1,980 Descending FlightAware
07:04PM 41.4850 -88.7760 62° Northeast 394 453 11,700 -1,800 Descending FlightAware
07:05PM 41.5160 -88.6980 62° Northeast 378 435 10,800 -780 Descending FlightAware
07:06PM 41.5510 -88.6100 62° Northeast 328 377 10,700 -120 Descending FlightAware
07:06PM 41.5750 -88.5480 63° Northeast 305 351 10,700  Level FlightAware
07:07PM 41.6030 -88.4820 60° Northeast 306 352 10,700  Level FlightAware
07:08PM 41.6400 -88.4140 54° Northeast 303 349 10,700  Level FlightAware
07:08PM 41.6740 -88.3550 52° Northeast 303 349 10,700  Level FlightAware
07:09PM 41.7080 -88.2970 52° Northeast 302 348 10,700 -300 Level FlightAware
07:10PM 41.7470 -88.2300 52° Northeast 302 348 10,300 -660 Descending FlightAware
07:10PM 41.7710 -88.1900 51° Northeast 296 341 9,900 -1,080 Descending FlightAware
07:10PM 41.7810 -88.1720 53° Northeast 294 338 9,600 -780 Descending FlightAware
07:11PM 41.8040 -88.1320 52° Northeast 289 333 9,200 -1,020 Descending FlightAware
07:12PM 41.8370 -88.0730 53° Northeast 284 327 8,400 -1,380 Descending FlightAware
07:12PM 41.8590 -88.0340 53° Northeast 282 325 7,900 -1,320 Descending FlightAware
07:12PM 41.8770 -87.9900 61° Northeast 283 326 7,200 -1,380 Descending FlightAware
07:13PM 41.8790 -87.9630 84° East 284 327 6,900 -720 Descending FlightAware
07:13PM 41.8810 -87.9150 87° East 267 307 6,700 -240 Descending FlightAware
07:14PM 41.8820 -87.8750 88° East 244 281 6,700  Level FlightAware
07:14PM 41.8830 -87.8370 88° East 217 250 6,700 -360 Level FlightAware
07:15PM 41.8840 -87.8010 88° East 205 236 6,400 -780 Descending FlightAware
07:15PM 41.8840 -87.7650 90° East 205 236 6,000 -1,020 Descending FlightAware
07:15PM 41.8840 -87.7470 90° East 205 236 5,700 -1,260 Descending FlightAware
07:16PM 41.8930 -87.7130 70° East 201 231 5,100 -1,140 Descending FlightAware
07:16PM 41.9020 -87.7070 26° Northeast 197 227 4,900 -1,080 Descending FlightAware
07:16PM 41.9190 -87.7050 North 195 224 4,600 -960 Descending FlightAware
07:16PM 41.9280 -87.7050 360° North 192 221 4,500 -1,080 Descending FlightAware
07:17PM 41.9430 -87.7070 354° North 190 219 4,100 -1,440 Descending FlightAware
07:17PM 41.9520 -87.7130 334° Northwest 184 212 3,800 -1,200 Descending FlightAware
07:17PM 41.9580 -87.7240 306° West 180 207 3,600 -1,380 Descending FlightAware
07:18PM 41.9670 -87.7560 291° West 166 191 2,800 -1,620 Descending FlightAware
07:18PM 41.9690 -87.7800 276° West 171 197 2,100 -1,440 Descending FlightAware
07:18PM 41.9690 -87.8070 270° West 155 178 1,600 -1,080 Descending FlightAware
07:19PM 41.9690 -87.8300 270° West 144 166 1,200 -840 Descending FlightAware
07:19PM 41.9690 -87.8590 270° West 138 159 800 -720 Descending FlightAware